Time;durP1;ratioP1;P1;durP2;ratioP2;P2;SDS_P1;SDS_P2;PMS_P1;PMS_P2;Temp;Humidity;BMP_temperature;BMP_pressure;BME280_temperature;BME280_humidity;BME280_pressure;Samples;Min_cycle;Max_cycle;Signal;HPM_P1;HPM_P2
2021/06/12 00:02:04;;;;;;;;;;;19.20;99.90;;;;;;5073580;28;20327;-77
2021/06/12 00:04:30;;;;;;;;;;;19.20;99.90;;;;;;5072220;28;19959;-77
2021/06/12 00:06:58;;;;;;;;;;;19.10;99.90;;;;;;5073423;28;19913;-76
2021/06/12 00:09:23;;;;;;;;;;;19.10;99.90;;;;;;5072875;28;19915;-77
2021/06/12 00:11:49;;;;;;;;;;;19.00;99.90;;;;;;5073108;28;19913;-78
2021/06/12 00:14:14;;;;;;;;;;;18.90;99.90;;;;;;5073089;28;19928;-78
2021/06/12 00:16:40;;;;;;;;;;;18.90;99.90;;;;;;5073576;28;19909;-76
2021/06/12 00:19:05;;;;;;;;;;;18.80;99.90;;;;;;5074715;28;19908;-78
2021/06/12 00:21:31;;;;;;;;;;;18.70;99.90;;;;;;5073322;28;20383;-78
2021/06/12 00:23:56;;;;;;;;;;;18.70;99.90;;;;;;5076195;28;19994;-78
2021/06/12 00:26:22;;;;;;;;;;;18.70;99.90;;;;;;5074704;28;19908;-77
2021/06/12 00:28:47;;;;;;;;;;;18.60;99.90;;;;;;5074569;28;20360;-78
2021/06/12 00:31:13;;;;;;;;;;;18.60;99.90;;;;;;5074681;28;19908;-78
2021/06/12 00:33:38;;;;;;;;;;;18.60;99.90;;;;;;5075680;28;19912;-77
2021/06/12 00:36:04;;;;;;;;;;;18.60;99.90;;;;;;5075339;28;19999;-78
2021/06/12 00:38:29;;;;;;;;;;;18.60;99.90;;;;;;5075521;28;19908;-77
2021/06/12 00:40:55;;;;;;;;;;;18.60;99.90;;;;;;5074710;28;19919;-78
2021/06/12 00:43:20;;;;;;;;;;;18.70;99.90;;;;;;5075233;28;19916;-77
2021/06/12 00:45:46;;;;;;;;;;;18.60;99.90;;;;;;5075947;28;19973;-78
2021/06/12 00:48:13;;;;;;;;;;;18.70;99.90;;;;;;5075861;28;20090;-77
2021/06/12 00:50:38;;;;;;;;;;;18.70;99.90;;;;;;5072558;28;19909;-77
2021/06/12 00:53:03;;;;;;;;;;;18.70;99.90;;;;;;5072312;28;19909;-76
2021/06/12 00:55:29;;;;;;;;;;;18.70;99.90;;;;;;5071105;28;19915;-77
2021/06/12 00:57:55;;;;;;;;;;;18.70;99.90;;;;;;5072532;28;20050;-77
2021/06/12 01:00:21;;;;;;;;;;;18.70;99.90;;;;;;5071033;28;19908;-77
2021/06/12 01:02:47;;;;;;;;;;;18.70;99.90;;;;;;5072283;28;19908;-77
2021/06/12 01:05:13;;;;;;;;;;;18.70;99.90;;;;;;5072207;28;19912;-77
2021/06/12 01:07:39;;;;;;;;;;;18.70;99.90;;;;;;5071078;28;19944;-75
2021/06/12 01:10:06;;;;;;;;;;;18.60;99.90;;;;;;5071918;28;19959;-77
2021/06/12 01:12:36;;;;;;;;;;;18.50;99.90;;;;;;5072261;28;19916;-77
2021/06/12 01:15:04;;;;;;;;;;;18.50;99.90;;;;;;5072340;28;20368;-77
2021/06/12 01:17:36;;;;;;;;;;;18.50;99.90;;;;;;5071060;28;19908;-78
2021/06/12 01:20:20;;;;;;;;;;;18.40;99.90;;;;;;5071979;28;19915;-77
2021/06/12 01:22:46;;;;;;;;;;;18.40;99.90;;;;;;5071758;28;19931;-76
2021/06/12 01:25:27;;;;;;;;;;;18.40;99.90;;;;;;5070772;28;20372;-77
2021/06/12 01:27:55;;;;;;;;;;;18.40;99.90;;;;;;5072204;28;19938;-76
2021/06/12 01:30:22;;;;;;;;;;;18.30;99.90;;;;;;5071131;28;20360;-77
2021/06/12 01:32:52;;;;;;;;;;;18.30;99.90;;;;;;5069888;28;19913;-77
2021/06/12 01:35:44;;;;;;;;;;;18.30;99.90;;;;;;5071343;28;19996;-77
2021/06/12 01:38:16;;;;;;;;;;;18.20;99.90;;;;;;5069955;28;19908;-77
2021/06/12 01:40:44;;;;;;;;;;;18.20;99.90;;;;;;5071960;28;19999;-76
2021/06/12 01:43:11;;;;;;;;;;;18.10;99.90;;;;;;5071670;28;19909;-77
2021/06/12 01:45:40;;;;;;;;;;;18.10;99.90;;;;;;5071672;28;19920;-77
2021/06/12 01:48:05;;;;;;;;;;;18.00;99.90;;;;;;5071805;28;19920;-77
2021/06/12 01:50:31;;;;;;;;;;;18.00;99.90;;;;;;5070340;28;19909;-77
2021/06/12 01:52:57;;;;;;;;;;;18.00;99.90;;;;;;5074269;28;19909;-78
2021/06/12 01:55:25;;;;;;;;;;;18.00;99.90;;;;;;5073824;28;19915;-76
2021/06/12 01:57:50;;;;;;;;;;;18.00;99.90;;;;;;5073854;28;20395;-77
2021/06/12 02:00:16;;;;;;;;;;;17.90;99.90;;;;;;5073738;28;19948;-77
2021/06/12 02:02:43;;;;;;;;;;;17.90;99.90;;;;;;5075208;28;19908;-77
2021/06/12 02:05:11;;;;;;;;;;;18.00;99.90;;;;;;5074053;28;19939;-76
2021/06/12 02:07:37;;;;;;;;;;;17.90;99.90;;;;;;5073803;28;19908;-76
2021/06/12 02:10:03;;;;;;;;;;;17.90;99.90;;;;;;5073838;28;20282;-76
2021/06/12 02:12:29;;;;;;;;;;;17.80;99.90;;;;;;5073488;28;19908;-76
2021/06/12 02:14:56;;;;;;;;;;;17.80;99.90;;;;;;5073500;28;19913;-77
2021/06/12 02:17:22;;;;;;;;;;;17.80;99.90;;;;;;5075321;28;19909;-76
2021/06/12 02:19:48;;;;;;;;;;;17.70;99.90;;;;;;5074693;28;19916;-77
2021/06/12 02:22:14;;;;;;;;;;;17.70;99.90;;;;;;5074971;28;20003;-76
2021/06/12 02:24:41;;;;;;;;;;;17.70;99.90;;;;;;5073649;28;19912;-76
2021/06/12 02:27:07;;;;;;;;;;;17.70;99.90;;;;;;5074825;28;19908;-77
2021/06/12 02:29:33;;;;;;;;;;;17.70;99.90;;;;;;5074328;28;20391;-77
2021/06/12 02:32:04;;;;;;;;;;;17.60;99.90;;;;;;5073566;28;19909;-76
2021/06/12 02:34:31;;;;;;;;;;;17.60;99.90;;;;;;5074611;28;19915;-76
2021/06/12 02:36:57;;;;;;;;;;;17.60;99.90;;;;;;5073478;28;20261;-77
2021/06/12 02:39:22;;;;;;;;;;;17.60;99.90;;;;;;5073259;28;19914;-76
2021/06/12 02:41:48;;;;;;;;;;;17.60;99.90;;;;;;5074524;28;19988;-76
2021/06/12 02:44:13;;;;;;;;;;;17.60;99.90;;;;;;5072610;28;20371;-77
2021/06/12 02:46:40;;;;;;;;;;;17.50;99.90;;;;;;5073659;28;19908;-77
2021/06/12 02:49:07;;;;;;;;;;;17.50;99.90;;;;;;5072217;28;20356;-77
2021/06/12 02:51:34;;;;;;;;;;;17.50;99.90;;;;;;5073348;28;20366;-77
2021/06/12 02:54:00;;;;;;;;;;;17.40;99.90;;;;;;5073382;28;19908;-77
2021/06/12 02:56:26;;;;;;;;;;;17.40;99.90;;;;;;5072722;28;19919;-77
2021/06/12 02:58:54;;;;;;;;;;;17.30;99.90;;;;;;5073597;28;19908;-77
2021/06/12 03:01:20;;;;;;;;;;;17.30;99.90;;;;;;5072473;28;19909;-77
2021/06/12 03:03:46;;;;;;;;;;;17.30;99.90;;;;;;5074548;28;19973;-76
2021/06/12 03:06:12;;;;;;;;;;;17.30;99.90;;;;;;5073328;28;19991;-77
2021/06/12 03:08:41;;;;;;;;;;;17.30;99.90;;;;;;5072597;28;20379;-77
2021/06/12 03:11:08;;;;;;;;;;;17.30;99.90;;;;;;5074310;28;19977;-77
2021/06/12 03:13:34;;;;;;;;;;;17.20;99.90;;;;;;5072927;28;19953;-77
2021/06/12 03:16:02;;;;;;;;;;;17.20;99.90;;;;;;5073844;28;20007;-77
2021/06/12 03:18:28;;;;;;;;;;;17.20;99.90;;;;;;5073939;28;20356;-77
2021/06/12 03:20:57;;;;;;;;;;;17.20;99.90;;;;;;5072354;28;19915;-77
2021/06/12 03:23:23;;;;;;;;;;;17.20;99.90;;;;;;5072686;28;19917;-75
2021/06/12 03:25:49;;;;;;;;;;;17.30;99.90;;;;;;5073283;28;19913;-77
2021/06/12 03:28:15;;;;;;;;;;;17.30;99.90;;;;;;5073875;28;19915;-76
2021/06/12 03:30:41;;;;;;;;;;;17.30;99.90;;;;;;5072735;28;20288;-76
2021/06/12 03:33:08;;;;;;;;;;;17.40;99.90;;;;;;5073774;28;19944;-77
2021/06/12 03:35:35;;;;;;;;;;;17.40;99.90;;;;;;5072809;28;19999;-77
2021/06/12 03:38:01;;;;;;;;;;;17.30;99.90;;;;;;5073584;28;19908;-76
2021/06/12 03:40:26;;;;;;;;;;;17.40;99.90;;;;;;5073624;28;19908;-76
2021/06/12 03:42:53;;;;;;;;;;;17.40;99.90;;;;;;5073952;28;19914;-76
2021/06/12 03:45:18;;;;;;;;;;;17.40;99.90;;;;;;5073733;28;19916;-77
2021/06/12 03:47:44;;;;;;;;;;;17.40;99.90;;;;;;5073979;28;19915;-75
2021/06/12 03:50:10;;;;;;;;;;;17.50;99.90;;;;;;5073401;28;19916;-76
2021/06/12 03:52:36;;;;;;;;;;;17.50;99.90;;;;;;5073608;28;19913;-77
2021/06/12 03:55:03;;;;;;;;;;;17.60;99.90;;;;;;5073386;28;19977;-76
2021/06/12 03:57:29;;;;;;;;;;;17.70;99.90;;;;;;5073872;28;20371;-76
2021/06/12 03:59:54;;;;;;;;;;;17.70;99.90;;;;;;5072154;28;19915;-77
2021/06/12 04:02:20;;;;;;;;;;;17.80;99.90;;;;;;5072509;28;19912;-76
2021/06/12 04:04:47;;;;;;;;;;;17.90;99.90;;;;;;5073130;28;19916;-76
2021/06/12 04:07:13;;;;;;;;;;;17.70;99.90;;;;;;5076273;28;19913;-76
2021/06/12 04:09:38;;;;;;;;;;;17.80;99.90;;;;;;5074884;28;19999;-77
2021/06/12 04:12:04;;;;;;;;;;;17.90;99.90;;;;;;5072119;28;19909;-76
2021/06/12 04:14:29;;;;;;;;;;;17.90;99.90;;;;;;5073618;28;19939;-78
2021/06/12 04:16:55;;;;;;;;;;;17.90;99.90;;;;;;5072411;28;19951;-76
2021/06/12 04:19:20;;;;;;;;;;;18.00;99.90;;;;;;5073760;28;19908;-76
2021/06/12 04:21:48;;;;;;;;;;;18.00;99.90;;;;;;5073426;28;19962;-76
2021/06/12 04:24:13;;;;;;;5.70;5.15;;;18.00;99.90;;;;;;5072732;28;19916;-76
2021/06/12 04:26:39;;;;;;;8.13;5.50;;;18.00;99.90;;;;;;5073104;28;20112;-76
2021/06/12 04:29:04;;;;;;;6.80;4.82;;;18.10;99.90;;;;;;5080599;28;20024;-77
2021/06/12 04:31:30;;;;;;;6.57;5.82;;;18.20;99.90;;;;;;5082588;28;20032;-77
2021/06/12 04:33:55;;;;;;;;;;;18.40;99.90;;;;;;5078951;28;20024;-76
2021/06/12 04:36:21;;;;;;;;;;;18.30;99.90;;;;;;5081122;28;19908;-76
2021/06/12 04:38:46;;;;;;;;;;;18.40;99.90;;;;;;5088590;28;20420;-77
2021/06/12 04:41:12;;;;;;;;;;;18.60;99.90;;;;;;5094415;28;20355;-77
2021/06/12 04:43:37;;;;;;;;;;;18.80;99.90;;;;;;5094647;28;20259;-77
2021/06/12 04:46:02;;;;;;;;;;;18.70;99.90;;;;;;5092982;28;19930;-76
2021/06/12 04:48:28;;;;;;;;;;;18.80;99.90;;;;;;5089866;28;19919;-77
2021/06/12 04:50:53;;;;;;;;;;;19.10;99.90;;;;;;5090155;28;19908;-76
2021/06/12 04:53:19;;;;;;;;;;;19.70;99.90;;;;;;5079546;28;19905;-76
2021/06/12 04:55:44;;;;;;;;;;;20.10;99.90;;;;;;5079864;28;19904;-76
2021/06/12 04:58:10;;;;;;;;;;;20.50;99.90;;;;;;5080487;28;20287;-76
2021/06/12 05:00:37;;;;;;;;;;;20.60;99.90;;;;;;5080967;28;24095;-76
2021/06/12 05:03:04;;;;;;;7.50;4.70;;;20.30;99.90;;;;;;5080005;28;20005;-77
2021/06/12 05:05:29;;;;;;;;;;;20.10;99.90;;;;;;5081111;28;20024;-76
2021/06/12 05:07:55;;;;;;;;;;;19.90;99.90;;;;;;5080633;28;20081;-75
2021/06/12 05:10:21;;;;;;;;;;;20.00;99.90;;;;;;5077777;28;20055;-76
2021/06/12 05:12:46;;;;;;;;;;;20.30;99.90;;;;;;5082411;28;19936;-77
2021/06/12 05:15:12;;;;;;;;;;;21.00;99.90;;;;;;5078854;28;19904;-77
2021/06/12 05:17:40;;;;;;;;;;;21.70;99.90;;;;;;5079530;28;19950;-77
2021/06/12 05:20:08;;;;;;;6.57;4.43;;;22.50;99.90;;;;;;5082979;28;20329;-77
2021/06/12 05:22:33;;;;;;;;;;;23.00;99.90;;;;;;5077872;28;20034;-77
2021/06/12 05:25:00;;;;;;;8.88;3.70;;;23.70;99.90;;;;;;5081228;28;24055;-77
2021/06/12 05:27:26;;;;;;;5.35;4.20;;;23.40;99.90;;;;;;5082444;28;20030;-76
2021/06/12 05:29:52;;;;;;;;;;;23.10;99.90;;;;;;5083664;28;20443;-76
2021/06/12 05:32:17;;;;;;;4.20;3.80;;;23.10;99.90;;;;;;5084131;28;20036;-76
2021/06/12 05:34:43;;;;;;;;;;;23.30;99.90;;;;;;5074278;28;19991;-77
2021/06/12 05:37:09;;;;;;;;;;;24.60;99.90;;;;;;5072852;28;20130;-78
2021/06/12 05:39:34;;;;;;;7.90;4.25;;;26.40;99.90;;;;;;5074052;28;20391;-76
2021/06/12 05:42:00;;;;;;;6.33;3.70;;;27.90;99.90;;;;;;5074137;28;19904;-77
2021/06/12 05:44:26;;;;;;;5.80;4.25;;;29.00;99.90;;;;;;5073725;28;19916;-75
2021/06/12 05:46:52;;;;;;;4.50;3.87;;;30.40;99.90;;;;;;5072760;28;20390;-77
2021/06/12 05:49:18;;;;;;;4.90;4.00;;;31.00;99.90;;;;;;5073347;28;20305;-77
2021/06/12 05:51:44;;;;;;;3.75;3.22;;;30.90;99.90;;;;;;5073965;28;20024;-76
2021/06/12 05:54:10;;;;;;;3.80;3.40;;;29.30;99.90;;;;;;5073674;28;19926;-75
2021/06/12 05:56:36;;;;;;;4.80;4.07;;;29.20;99.90;;;;;;5072389;28;19909;-78
2021/06/12 05:59:01;;;;;;;4.20;3.50;;;29.40;99.90;;;;;;5073926;28;19958;-77
2021/06/12 06:01:27;;;;;;;9.10;3.75;;;28.60;99.90;;;;;;5073566;28;19969;-77
2021/06/12 06:03:52;;;;;;;;;;;27.70;99.90;;;;;;5073626;28;19910;-76
2021/06/12 06:06:18;;;;;;;4.30;3.30;;;27.40;99.90;;;;;;5073766;28;20111;-76
2021/06/12 06:08:43;;;;;;;;;;;26.50;99.90;;;;;;5072175;28;20043;-76
2021/06/12 06:11:09;;;;;;;;;;;27.00;99.90;;;;;;5073728;28;20039;-78
2021/06/12 06:13:35;;;;;;;;;;;27.50;99.90;;;;;;5073892;28;20041;-77
2021/06/12 06:16:01;;;;;;;;;;;29.10;99.90;;;;;;5072568;28;20043;-76
2021/06/12 06:18:26;;;;;;;;;;;30.30;99.90;;;;;;5072493;28;20081;-77
2021/06/12 06:20:51;;;;;;;;;;;31.10;99.90;;;;;;5072873;28;20028;-77
2021/06/12 06:23:17;;;;;;;;;;;29.60;99.90;;;;;;5074235;28;20117;-77
2021/06/12 06:25:42;;;;;;;;;;;28.70;99.90;;;;;;5073978;28;20043;-76
2021/06/12 06:28:08;;;;;;;;;;;29.30;99.90;;;;;;5072825;28;20050;-77
2021/06/12 06:30:33;;;;;;;;;;;29.60;99.90;;;;;;5072924;28;20509;-77
2021/06/12 06:32:59;;;;;;;;;;;28.80;99.90;;;;;;5073906;28;20077;-77
2021/06/12 06:35:24;;;;;;;;;;;28.00;99.90;;;;;;5074016;28;20038;-76
2021/06/12 06:37:50;;;;;;;;;;;27.50;99.90;;;;;;5072314;28;20118;-78
2021/06/12 06:40:16;;;;;;;;;;;26.90;99.90;;;;;;5073555;28;20031;-77
2021/06/12 06:42:41;;;;;;;4.23;3.83;;;26.10;99.90;;;;;;5073804;28;20049;-77
2021/06/12 06:45:08;;;;;;;4.80;3.70;;;26.70;99.90;;;;;;5073513;28;19955;-77
2021/06/12 06:47:34;;;;;;;;;;;28.00;99.90;;;;;;5073536;28;20450;-78
2021/06/12 06:49:59;;;;;;;4.85;2.90;;;30.90;99.90;;;;;;5071973;28;20038;-78
2021/06/12 06:52:25;;;;;;;3.53;2.97;;;33.30;99.90;;;;;;5072229;28;20093;-76
2021/06/12 06:54:50;;;;;;;4.53;2.90;;;35.00;98.50;;;;;;5073617;28;20268;-77
2021/06/12 06:57:16;;;;;;;3.20;2.93;;;35.60;95.90;;;;;;5073500;28;19950;-77
2021/06/12 06:59:41;;;;;;;4.27;3.30;;;36.10;93.20;;;;;;5073098;28;20530;-76
2021/06/12 07:02:07;;;;;;;2.57;2.37;;;33.80;94.20;;;;;;5073082;28;20024;-76
2021/06/12 07:04:36;;;;;;;10.55;4.65;;;31.50;97.30;;;;;;5072160;28;20135;-77
2021/06/12 07:07:04;;;;;;;5.32;3.28;;;30.30;98.30;;;;;;5073340;28;20016;-77
2021/06/12 07:09:29;;;;;;;5.20;3.20;;;28.60;99.90;;;;;;5072989;28;20027;-77
2021/06/12 07:11:56;;;;;;;3.27;2.97;;;28.40;99.90;;;;;;5072996;28;20025;-77
2021/06/12 07:14:21;;;;;;;5.25;3.13;;;29.50;99.90;;;;;;5071787;28;20025;-75
2021/06/12 07:16:47;;;;;;;3.03;2.83;;;30.10;99.90;;;;;;5073438;28;20104;-78
2021/06/12 07:19:12;;;;;;;4.17;2.50;;;30.80;99.90;;;;;;5071795;28;20502;-75
2021/06/12 07:21:38;;;;;;;5.47;2.93;;;30.90;99.90;;;;;;5071730;28;20280;-77
2021/06/12 07:24:04;;;;;;;4.20;2.40;;;31.10;99.90;;;;;;5072981;28;19994;-77
2021/06/12 07:26:30;;;;;;;2.63;2.42;;;31.20;99.90;;;;;;5072918;28;20052;-77
2021/06/12 07:28:55;;;;;;;2.33;2.13;;;30.30;99.90;;;;;;5072712;28;20029;-77
2021/06/12 07:31:21;;;;;;;1.90;1.70;;;30.40;99.90;;;;;;5071355;28;19904;-77
2021/06/12 07:33:46;;;;;;;3.55;2.05;;;30.40;99.90;;;;;;5072986;28;19912;-77
2021/06/12 07:36:12;;;;;;;3.70;3.05;;;30.10;98.80;;;;;;5073105;28;20519;-77
2021/06/12 07:38:37;;;;;;;;;;;29.00;99.90;;;;;;5072320;28;20052;-77
2021/06/12 07:41:03;;;;;;;;;;;28.90;99.90;;;;;;5072773;28;19905;-77
2021/06/12 07:43:28;;;;;;;;;;;29.50;99.90;;;;;;5072494;28;20035;-77
2021/06/12 07:45:54;;;;;;;2.40;2.00;;;29.80;99.80;;;;;;5071057;28;20032;-77
2021/06/12 07:48:19;;;;;;;2.80;2.47;;;29.60;99.90;;;;;;5072382;28;20021;-77
2021/06/12 07:50:45;;;;;;;4.30;2.93;;;30.20;99.90;;;;;;5071788;28;20303;-77
2021/06/12 07:53:11;;;;;;;;;;;30.00;99.60;;;;;;5072380;28;20054;-77
2021/06/12 07:55:36;;;;;;;;;;;30.40;99.90;;;;;;5070999;28;20028;-77
2021/06/12 07:58:02;;;;;;;;;;;30.10;99.90;;;;;;5072389;28;20065;-76
2021/06/12 08:00:28;;;;;;;;;;;29.60;99.90;;;;;;5070599;28;20028;-77
2021/06/12 08:02:53;;;;;;;;;;;29.80;99.90;;;;;;5072239;28;20027;-77
2021/06/12 08:05:19;;;;;;;3.07;2.20;;;28.90;99.90;;;;;;5071965;28;20020;-77
2021/06/12 08:07:44;;;;;;;2.83;2.30;;;28.10;99.90;;;;;;5070692;28;20028;-77
2021/06/12 08:10:10;;;;;;;3.07;2.47;;;28.20;99.90;;;;;;5071841;28;20028;-77
2021/06/12 08:12:36;;;;;;;3.85;2.60;;;28.60;99.90;;;;;;5070523;28;20050;-77
2021/06/12 08:15:04;;;;;;;3.13;2.20;;;29.80;99.90;;;;;;5071737;28;20516;-79
2021/06/12 08:17:30;;;;;;;4.30;2.20;;;31.90;99.50;;;;;;5074561;28;20108;-77
2021/06/12 08:19:56;;;;;;;2.53;1.97;;;32.50;99.00;;;;;;5071676;28;20086;-77
2021/06/12 08:22:21;;;;;;;2.17;1.98;;;32.50;98.60;;;;;;5071862;28;20111;-76
2021/06/12 08:24:49;;;;;;;4.23;2.33;;;32.50;97.50;;;;;;5071950;28;20112;-77
2021/06/12 08:27:15;;;;;;;2.42;1.90;;;32.70;96.90;;;;;;5071616;28;20025;-77
2021/06/12 08:29:40;;;;;;;3.00;2.45;;;32.60;95.50;;;;;;5071417;28;20047;-77
2021/06/12 08:32:06;;;;;;;4.83;1.70;;;32.50;95.70;;;;;;5070489;28;20158;-76
2021/06/12 08:34:32;;;;;;;1.80;1.13;;;32.60;94.30;;;;;;5071619;28;20044;-76
2021/06/12 08:36:58;;;;;;;3.00;2.08;;;32.80;96.30;;;;;;5071568;28;20029;-77
2021/06/12 08:39:23;;;;;;;2.13;1.60;;;32.70;94.50;;;;;;5087050;28;20455;-78
2021/06/12 08:41:49;;;;;;;1.67;1.50;;;32.10;93.90;;;;;;5090849;28;20493;-77
2021/06/12 08:44:14;;;;;;;2.10;1.90;;;32.10;92.90;;;;;;5091745;28;20036;-77
2021/06/12 08:46:40;;;;;;;2.67;1.60;;;32.70;94.30;;;;;;5091668;28;20109;-88
2021/06/12 08:49:06;;;;;;;2.13;1.53;;;34.30;91.50;;;;;;5091914;28;20027;-83
2021/06/12 08:51:33;;;;;;;3.63;1.60;;;35.40;88.90;;;;;;5093103;28;19908;-82
2021/06/12 08:53:58;;;;;;;3.05;1.85;;;35.60;88.60;;;;;;5092224;28;20020;-82
2021/06/12 08:56:24;;;;;;;2.27;1.47;;;35.70;82.70;;;;;;5093613;28;19911;-80
2021/06/12 08:58:49;;;;;;;3.47;1.20;;;35.00;86.80;;;;;;5092180;28;19911;-81
2021/06/12 09:01:15;;;;;;;1.60;1.50;;;34.20;85.40;;;;;;5093907;28;19908;-81
2021/06/12 09:03:45;;;;;;;2.10;1.50;;;34.40;85.80;;;;;;5096862;28;20031;-80
2021/06/12 09:06:13;;;;;;;3.63;1.55;;;35.00;85.80;;;;;;5097820;28;20034;-81
2021/06/12 09:08:41;;;;;;;2.47;1.58;;;34.40;87.30;;;;;;5097841;28;20397;-80
2021/06/12 09:11:13;;;;;;;1.52;1.42;;;34.50;86.20;;;;;;5096380;28;20032;-80
2021/06/12 09:13:50;;;;;;;2.28;1.60;;;34.30;87.40;;;;;;5097451;28;19911;-82
2021/06/12 09:16:40;;;;;;;2.45;1.88;;;33.90;90.20;;;;;;5096122;28;20360;-79
2021/06/12 09:19:14;;;;;;;1.52;1.42;;;33.50;88.70;;;;;;5096610;28;20502;-80
2021/06/12 09:21:46;;;;;;;3.20;1.60;;;33.60;90.40;;;;;;5097578;28;19987;-81
2021/06/12 09:24:27;;;;;;;1.95;1.60;;;34.40;84.90;;;;;;5096028;28;19998;-81
2021/06/12 09:27:14;;;;;;;1.30;1.02;;;35.60;83.10;;;;;;5095873;28;20073;-82
2021/06/12 09:29:49;;;;;;;1.83;1.63;;;36.30;83.00;;;;;;5096172;28;20227;-81
2021/06/12 09:32:20;;;;;;;1.73;1.48;;;36.70;82.90;;;;;;5096888;28;20028;-81
2021/06/12 09:34:48;;;;;;;2.70;1.77;;;37.40;82.60;;;;;;5096237;28;20027;-79
2021/06/12 09:37:17;;;;;;;2.15;1.50;;;37.50;77.00;;;;;;5096008;28;19911;-80
2021/06/12 09:39:55;;;;;;;1.67;1.10;;;36.90;75.90;;;;;;5096818;28;20020;-80
2021/06/12 09:42:51;;;;;;;1.67;1.58;;;36.20;77.80;;;;;;5095201;28;20085;-80
2021/06/12 09:45:19;;;;;;;1.58;1.48;;;35.30;77.20;;;;;;5095712;28;20514;-80
2021/06/12 09:47:45;;;;;;;1.77;1.63;;;35.60;81.30;;;;;;5095539;28;19958;-80
2021/06/12 09:50:12;;;;;;;1.48;1.38;;;36.50;79.20;;;;;;5096683;28;20024;-80
2021/06/12 09:52:45;;;;;;;3.10;2.30;;;37.00;77.90;;;;;;5096937;28;20385;-80
2021/06/12 09:55:27;;;;;;;1.33;1.23;;;37.70;75.20;;;;;;5089320;28;20168;-81
2021/06/12 09:57:54;;;;;;;3.63;1.63;;;38.40;74.50;;;;;;5085796;28;20020;-81
2021/06/12 10:00:36;;;;;;;1.75;1.55;;;38.70;73.80;;;;;;5083994;28;20016;-81
2021/06/12 10:03:02;;;;;;;2.08;1.50;;;39.00;75.20;;;;;;5087046;28;20032;-79
2021/06/12 10:05:28;;;;;;;1.40;1.30;;;38.60;72.60;;;;;;5085412;28;20024;-80
2021/06/12 10:07:54;;;;;;;;;;;38.70;72.20;;;;;;5089135;28;20036;-80
2021/06/12 10:10:20;;;;;;;3.05;1.90;;;38.10;72.50;;;;;;5084221;28;19904;-82
2021/06/12 10:12:46;;;;;;;1.60;1.50;;;37.60;74.40;;;;;;5074271;28;19914;-81
2021/06/12 10:15:13;;;;;;;2.15;1.67;;;37.50;75.30;;;;;;5076647;28;20025;-81
2021/06/12 10:17:49;;;;;;;1.60;1.50;;;38.40;73.90;;;;;;5076560;28;20036;-80
2021/06/12 10:20:18;;;;;;;1.60;1.48;;;38.20;71.50;;;;;;5075385;28;20020;-81
2021/06/12 10:22:45;;;;;;;1.42;1.33;;;38.90;71.10;;;;;;5074964;28;20392;-82
2021/06/12 10:25:16;;;;;;;1.75;1.65;;;38.50;70.50;;;;;;5075023;28;19909;-80
2021/06/12 10:27:43;;;;;;;2.40;1.90;;;38.70;69.60;;;;;;5075163;28;20063;-80
2021/06/12 10:30:11;;;;;;;1.50;1.40;;;39.00;70.30;;;;;;5074597;28;20020;-78
2021/06/12 10:32:47;;;;;;;1.38;1.27;;;38.50;71.00;;;;;;5073569;28;20029;-78
2021/06/12 10:35:16;;;;;;;;;;;38.00;71.20;;;;;;5076580;28;20095;-77
2021/06/12 10:38:09;;;;;;;1.45;1.25;;;37.90;69.50;;;;;;5074341;28;19911;-79
2021/06/12 10:40:45;;;;;;;1.50;1.38;;;37.70;68.80;;;;;;5074696;28;20020;-79
2021/06/12 10:43:17;;;;;;;1.27;1.17;;;37.70;69.90;;;;;;5075603;28;20035;-79
2021/06/12 10:45:45;;;;;;;1.08;0.98;;;38.30;70.10;;;;;;5074065;28;20054;-79
2021/06/12 10:48:37;;;;;;;1.27;1.10;;;38.20;67.70;;;;;;5074299;28;20394;-79
2021/06/12 10:51:13;;;;;;;1.02;0.93;;;38.20;69.30;;;;;;5074158;28;20032;-78
2021/06/12 10:53:42;;;;;;;1.10;1.00;;;38.30;65.00;;;;;;5074067;28;20079;-79
2021/06/12 10:56:12;;;;;;;2.33;1.10;;;37.90;68.80;;;;;;5075624;28;20020;-81
2021/06/12 10:58:41;;;;;;;;;;;38.10;69.10;;;;;;5075351;28;20116;-81
2021/06/12 11:01:20;;;;;;;;;;;38.10;66.60;;;;;;5075368;28;20039;-79
2021/06/12 11:06:39;;;;;;;;;;;37.10;63.70;;;;;;5076025;28;20135;-79
2021/06/12 11:09:18;;;;;;;;;;;36.20;66.50;;;;;;5074151;28;19904;-78
2021/06/12 11:11:43;;;;;;;;;;;36.00;64.80;;;;;;5072145;28;19904;-80
2021/06/12 11:14:23;;;;;;;;;;;35.90;65.10;;;;;;5074506;28;19904;-78
2021/06/12 11:17:08;;;;;;;0.70;0.70;;;35.00;64.70;;;;;;5073119;28;19955;-78
2021/06/12 11:19:39;;;;;;;;;;;34.20;64.90;;;;;;5074739;28;20042;-79
2021/06/12 11:22:23;;;;;;;;;;;33.80;72.90;;;;;;5076248;28;19909;-78
2021/06/12 11:24:51;;;;;;;0.70;0.47;;;33.20;68.50;;;;;;5071819;28;20398;-80
2021/06/12 11:27:23;;;;;;;;;;;32.70;74.20;;;;;;5074174;28;20040;-79
2021/06/12 11:30:07;;;;;;;;;;;32.50;66.60;;;;;;5073667;28;19905;-77
2021/06/12 11:32:33;;;;;;;;;;;32.00;68.00;;;;;;5073310;28;20368;-78
2021/06/12 11:34:59;;;;;;;;;;;31.80;70.00;;;;;;5074847;28;19915;-79
2021/06/12 11:37:27;;;;;;;;;;;31.80;70.20;;;;;;5073859;28;19904;-80
2021/06/12 11:39:56;;;;;;;;;;;31.90;69.10;;;;;;5074631;28;19904;-80
2021/06/12 11:42:22;;;;;;;;;;;32.10;70.70;;;;;;5073140;28;19911;-80
2021/06/12 11:44:47;;;;;;;;;;;31.80;67.10;;;;;;5073900;28;20014;-80
2021/06/12 11:47:24;;;;;;;;;;;31.70;71.50;;;;;;5073340;28;19950;-79
2021/06/12 11:49:50;;;;;;;;;;;32.00;71.70;;;;;;5072316;28;20398;-77
2021/06/12 11:52:15;;;;;;;;;;;32.40;72.50;;;;;;5073141;28;19908;-78
2021/06/12 11:54:41;;;;;;;;;;;32.30;72.00;;;;;;5074254;28;19905;-79
2021/06/12 11:57:07;;;;;;;;;;;32.40;72.40;;;;;;5074797;28;19908;-80
2021/06/12 11:59:33;;;;;;;;;;;32.30;71.20;;;;;;5072574;28;19908;-79
2021/06/12 12:02:03;;;;;;;;;;;31.60;69.60;;;;;;5074058;28;20000;-79
2021/06/12 12:04:33;;;;;;;;;;;31.80;70.50;;;;;;5072602;28;20418;-79
2021/06/12 12:06:58;;;;;;;;;;;31.70;72.60;;;;;;5072531;28;19910;-78
2021/06/12 12:09:31;;;;;;;;;;;31.50;72.40;;;;;;5072346;28;19999;-79
2021/06/12 12:12:10;;;;;;;;;;;31.20;73.10;;;;;;5074248;28;19935;-79
2021/06/12 12:14:40;;;;;;;;;;;31.10;70.80;;;;;;5073281;28;19904;-80
2021/06/12 12:17:06;;;;;;;;;;;30.60;71.40;;;;;;5073478;28;19904;-79
2021/06/12 12:19:32;;;;;;;;;;;30.20;75.60;;;;;;5072940;28;19915;-79
2021/06/12 12:21:59;;;;;;;;;;;30.50;72.80;;;;;;5073419;28;19905;-79
2021/06/12 12:24:28;;;;;;;;;;;30.70;69.80;;;;;;5074361;28;20295;-79
2021/06/12 12:27:02;;;;;;;;;;;30.80;71.40;;;;;;5075115;28;19908;-78
2021/06/12 12:29:29;;;;;;;;;;;30.50;70.10;;;;;;5072478;28;19904;-79
2021/06/12 12:31:59;;;;;;;;;;;30.20;78.70;;;;;;5073235;28;20364;-80
2021/06/12 12:34:30;;;;;;;;;;;31.00;69.50;;;;;;5073407;28;19950;-78
2021/06/12 12:36:56;;;;;;;;;;;31.60;70.70;;;;;;5073500;28;20025;-79
2021/06/12 12:39:22;;;;;;;;;;;32.00;71.50;;;;;;5073988;28;19919;-80
2021/06/12 12:41:57;;;;;;;;;;;31.50;68.30;;;;;;5072847;28;19911;-78
2021/06/12 12:44:24;;;;;;;;;;;31.60;68.00;;;;;;5074472;28;19912;-79
2021/06/12 12:46:51;;;;;;;;;;;31.00;68.70;;;;;;5055274;28;22044;-79
2021/06/12 12:49:19;;;;;;;;;;;30.60;71.90;;;;;;5072144;28;19912;-79
2021/06/12 12:51:49;;;;;;;;;;;30.60;73.60;;;;;;5072844;28;19909;-79
2021/06/12 12:54:14;;;;;;;;;;;30.80;71.70;;;;;;5073812;28;19909;-79
2021/06/12 12:56:51;;;;;;;;;;;31.30;70.70;;;;;;5074147;28;19996;-80
2021/06/12 12:59:23;;;;;;;;;;;31.20;72.80;;;;;;5071651;28;19919;-79
2021/06/12 13:01:49;;;;;;;;;;;30.70;73.00;;;;;;5071764;28;20359;-79
2021/06/12 13:04:24;;;;;;;;;;;30.90;73.10;;;;;;5071638;28;19908;-78
2021/06/12 13:06:50;;;;;;;;;;;31.20;71.60;;;;;;5072249;28;19999;-81
2021/06/12 13:09:17;;;;;;;;;;;30.80;70.00;;;;;;5073210;28;19947;-79
2021/06/12 13:11:43;;;;;;;;;;;30.70;70.60;;;;;;5073845;28;19915;-79
2021/06/12 13:14:09;;;;;;;;;;;30.80;71.70;;;;;;5072004;28;19915;-79
2021/06/12 13:16:35;;;;;;;;;;;30.40;70.60;;;;;;5072573;28;19909;-79
2021/06/12 13:19:16;;;;;;;;;;;30.60;73.50;;;;;;5071826;28;19912;-79
2021/06/12 13:21:50;;;;;;;;;;;31.00;70.60;;;;;;5071726;28;20425;-78
2021/06/12 13:24:16;;;;;;;;;;;30.60;69.80;;;;;;5072108;28;19912;-80
2021/06/12 13:26:42;;;;;;;;;;;31.00;70.40;;;;;;5072257;28;19924;-78
2021/06/12 13:29:17;;;;;;;;;;;31.00;68.50;;;;;;5074648;28;19916;-81
2021/06/12 13:31:46;;;;;;;;;;;31.00;68.20;;;;;;5073931;28;19998;-78
2021/06/12 13:34:29;;;;;;;;;;;30.90;69.30;;;;;;5074234;28;19915;-79
2021/06/12 13:36:56;;;;;;;;;;;30.90;69.50;;;;;;5072247;28;20318;-79
2021/06/12 13:39:32;;;;;;;;;;;30.60;75.00;;;;;;5072131;28;20188;-79
2021/06/12 13:42:14;;;;;;;;;;;30.50;71.80;;;;;;5071882;28;19916;-79
2021/06/12 13:44:45;;;;;;;;;;;30.80;74.00;;;;;;5070716;28;20213;-79
2021/06/12 13:47:11;;;;;;;;;;;31.00;69.20;;;;;;5071377;28;19908;-79
2021/06/12 13:49:36;;;;;;;;;;;30.60;68.20;;;;;;5074935;28;20022;-80
2021/06/12 13:52:02;;;;;;;;;;;30.60;68.10;;;;;;5077565;28;20628;-79